• Join FlightAware (Why Join?)
  • Login
  • US Flag 
04:01PM EDT


 

Airport Tracker/Info


-or-


 

Live Flight TrackerFlight Track Log ✈ N45NF ✈ 08-Jun-2013 ✈ KAMW - 1F0

Flight Track Log - Related Links

Times and Time Zones

All times are in EDT time to prevent confusion due to time zone crossing. See the N45NF flight status page for this flight to view local times or setup timezone preferences in your user account.

Time Position Orientation Groundspeed Altitude Reporting Facility
EDT Latitude Longitude Course Direction KTS MPH feet Rate Location/Type
12:42PM 41.9211 -93.6564 201° Southwest 218 251 5,700  Level Minneapolis Center
12:43PM 41.8386 -93.7000 201° Southwest 257 296 10,000 3,480 Climbing Minneapolis Center
12:44PM 41.7711 -93.7325 200° South 269 310 13,400 3,000 Climbing Minneapolis Center
12:45PM 41.6964 -93.7694 200° South 285 328 16,300 2,700 Climbing Minneapolis Center
12:46PM 41.5994 -93.8178 200° South 305 351 19,000 2,460 Climbing Minneapolis Center
12:47PM 41.5144 -93.8589 200° South 321 369 21,500 2,280 Climbing Minneapolis Center
12:48PM 41.4286 -93.9019 201° Southwest 329 379 23,800 1,980 Climbing Minneapolis Center
12:49PM 41.3425 -93.9439 200° South 332 382 25,600 1,620 Climbing Minneapolis Center
12:50PM 41.2522 -93.9881 200° South 338 389 27,200 1,680 Climbing Minneapolis Center
12:51PM 41.1369 -94.0453 201° Southwest 353 406 29,100 1,680 Climbing Minneapolis Center
12:52PM 41.0411 -94.0919 200° South 363 418 30,700 1,680 Climbing Minneapolis Center
12:54PM 40.9453 -94.1386 200° South 369 425 32,600 1,860 Climbing Minneapolis Center
12:55PM 40.8503 -94.1850 200° South 368 423 34,600 1,800 Climbing Minneapolis Center
12:56PM 40.7558 -94.2306 200° South 366 421 36,400 1,980 Climbing Minneapolis Center
12:57PM 40.6419 -94.2856 200° South 367 422 38,700 1,740 Climbing Minneapolis Center
12:58PM 40.5500 -94.3294 200° South 362 417 40,000 600 Climbing Minneapolis Center
12:59PM 40.4522 -94.3764 200° South 367 422 40,000  Level Minneapolis Center
01:00PM 40.3453 -94.4267 200° South 393 452 40,000  Level Minneapolis Center
01:01PM 40.2375 -94.4792 200° South 409 471 40,000  Level Minneapolis Center
01:02PM 40.1297 -94.5272 199° South 409 471 40,000  Level Kansas City Center
01:03PM 40.0111 -94.5842 200° South 404 465 40,000  Level Kansas City Center
01:04PM 39.9083 -94.6314 199° South 406 467 40,000  Level Kansas City Center
01:05PM 39.7908 -94.6889 201° Southwest 402 463 40,000  Level Kansas City Center
01:06PM 39.6864 -94.7356 199° South 409 471 40,000  Level Kansas City Center
01:07PM 39.5661 -94.7928 200° South 412 474 40,000  Level Kansas City Center
01:08PM 39.4631 -94.8408 200° South 411 473 40,000  Level Kansas City Center
01:09PM 39.3583 -94.8900 200° South 414 476 40,000  Level Kansas City Center
01:10PM 39.2372 -94.9442 199° South 409 471 40,000  Level Kansas City Center
01:11PM 39.1331 -94.9922 200° South 409 471 40,000  Level Kansas City Center
01:12PM 39.0106 -95.0481 200° South 412 474 40,000  Level Kansas City Center
01:13PM 38.9056 -95.0958 200° South 415 478 40,000  Level Kansas City Center
01:14PM 38.7825 -95.1525 200° South 420 483 40,000  Level Kansas City Center
01:15PM 38.6761 -95.2011 200° South 422 486 40,000  Level Kansas City Center
01:16PM 38.5708 -95.2492 200° South 419 482 40,000  Level Kansas City Center
01:17PM 38.4500 -95.3031 199° South 413 475 40,000  Level Kansas City Center
01:18PM 38.3472 -95.3494 199° South 410 472 40,000  Level Kansas City Center
01:19PM 38.2258 -95.4031 199° South 410 472 40,000  Level Kansas City Center
01:20PM 38.1203 -95.4503 199° South 417 480 40,000  Level Kansas City Center
01:21PM 37.9978 -95.5044 199° South 418 481 40,000  Level Kansas City Center
01:22PM 37.8958 -95.5497 199° South 417 480 40,000  Level Kansas City Center
01:23PM 37.7867 -95.5972 199° South 415 478 40,000  Level Kansas City Center
01:24PM 37.6542 -95.6558 199° South 418 481 40,000  Level Kansas City Center
01:25PM 37.5439 -95.7039 199° South 419 482 40,000  Level Kansas City Center
01:27PM 37.4322 -95.7525 199° South 423 487 40,000  Level Kansas City Center
01:28PM 37.3214 -95.7989 198° South 421 484 40,000  Level Kansas City Center
01:29PM 37.2108 -95.8472 199° South 421 484 40,000  Level Kansas City Center
01:30PM 37.0989 -95.8964 199° South 424 488 40,000  Level Kansas City Center
01:31PM 36.9650 -95.9539 199° South 424 488 40,000  Level Kansas City Center
01:32PM 36.8531 -96.0025 199° South 426 490 40,000  Level Kansas City Center
01:33PM 36.7425 -96.0514 200° South 424 488 40,000  Level Kansas City Center
01:34PM 36.6300 -96.0986 199° South 426 490 40,000  Level Kansas City Center
01:35PM 36.5203 -96.1444 199° South 421 484 40,000  Level Kansas City Center
01:36PM 36.4136 -96.1908 199° South 413 475 40,000  Level Kansas City Center
01:37PM 36.2825 -96.2467 199° South 415 478 40,000  Level Kansas City Center
01:38PM 36.1706 -96.2936 199° South 422 486 40,000  Level Kansas City Center
01:39PM 36.0589 -96.3406 199° South 425 489 40,000  Level Kansas City Center
01:40PM 35.9500 -96.3847 198° South 417 480 40,000 -840 Level Kansas City Center
01:41PM 35.8347 -96.4333 199° South 410 472 38,300 -1,860 Descending Kansas City Center
01:42PM 35.7269 -96.4772 198° South 408 470 36,100 -1,920 Descending Kansas City Center
01:43PM 35.6219 -96.5194 198° South 400 460 34,500 -1,860 Descending Kansas City Center
01:44PM 35.5514 -96.5511 200° South 402 463 33,300 -2,160 Descending Fort Worth Center
01:45PM 35.4472 -96.5931 198° South 402 463 31,300 -2,040 Descending Fort Worth Center
01:46PM 35.3433 -96.6372 199° South 402 463 29,300 -1,980 Descending Fort Worth Center
01:47PM 35.2394 -96.6789 198° South 402 463 27,400 -2,100 Descending Fort Worth Center
01:48PM 35.1292 -96.7256 199° South 408 470 25,200 -2,340 Descending Fort Worth Center
01:49PM 35.0228 -96.7669 198° South 408 470 22,800 -2,400 Descending Fort Worth Center
01:50PM 34.9250 -96.8108 200° South 397 457 20,400 -2,280 Descending Fort Worth Center
01:51PM 34.8333 -96.8469 198° South 373 429 18,300 -2,160 Descending Fort Worth Center
01:52PM 34.7378 -96.8856 198° South 367 422 16,100 -2,340 Descending Fort Worth Center
01:53PM 34.6461 -96.9239 199° South 362 417 13,700 -2,460 Descending Fort Worth Center
01:54PM 34.5564 -96.9622 199° South 357 411 11,200 -2,520 Descending Fort Worth Center